createdAt,value
2019-01-03T00:00:32.920Z,2.03
2019-01-03T00:05:16.165Z,3.30
2019-01-03T00:09:54.812Z,5.40
2019-01-03T00:14:29.942Z,2.60
2019-01-03T00:19:05.806Z,7.73
2019-01-03T00:23:49.352Z,5.73
2019-01-03T00:28:26.290Z,5.27
2019-01-03T00:33:04.294Z,3.23
2019-01-03T00:37:53.664Z,6.73
2019-01-03T00:42:36.895Z,4.00
2019-01-03T00:47:21.175Z,2.60
2019-01-03T00:51:59.799Z,3.40
2019-01-03T00:56:38.122Z,6.77
2019-01-03T01:01:13.420Z,5.97
2019-01-03T01:06:07.448Z,3.47
2019-01-03T01:10:47.723Z,4.60
2019-01-03T01:15:40.408Z,3.37
2019-01-03T01:20:35.792Z,5.57
2019-01-03T01:25:11.333Z,5.47
2019-01-03T01:29:47.315Z,6.47
2019-01-03T01:34:30.423Z,5.57
2019-01-03T01:39:06.349Z,6.00
2019-01-03T01:43:42.443Z,4.03
2019-01-03T01:48:22.570Z,7.53
2019-01-03T01:53:05.730Z,6.90
2019-01-03T01:57:41.672Z,3.50
2019-01-03T02:02:22.622Z,4.77
2019-01-03T02:06:58.477Z,5.10
2019-01-03T02:11:44.297Z,7.23
2019-01-03T02:16:33.672Z,4.40
2019-01-03T02:21:08.093Z,8.33
2019-01-03T02:25:44.918Z,2.87
2019-01-03T02:30:24.891Z,6.73
2019-01-03T02:35:17.751Z,5.87
2019-01-03T02:39:57.637Z,3.90
2019-01-03T02:44:33.357Z,4.43
2019-01-03T02:49:26.655Z,5.30
2019-01-03T02:54:03.617Z,3.93
2019-01-03T02:58:37.143Z,2.50
2019-01-03T03:03:26.122Z,7.70
2019-01-03T03:08:06.274Z,6.30
2019-01-03T03:12:52.377Z,4.23
2019-01-03T03:17:34.113Z,6.70
2019-01-03T03:22:15.627Z,6.27
2019-01-03T03:26:51.599Z,6.20
2019-01-03T03:31:30.267Z,2.93
2019-01-03T03:36:23.767Z,4.80
2019-01-03T03:41:00.060Z,3.60
2019-01-03T03:45:40.019Z,6.80
2019-01-03T03:50:23.328Z,2.53
2019-01-03T03:55:06.701Z,4.83
2019-01-03T03:59:59.257Z,3.10
2019-01-03T04:04:54.852Z,7.33
2019-01-03T04:09:34.771Z,3.80
2019-01-03T04:14:20.499Z,6.50
2019-01-03T04:19:01.232Z,4.23
2019-01-03T04:23:41.193Z,3.87
2019-01-03T04:28:17.102Z,4.97
2019-01-03T04:32:53.117Z,2.80
2019-01-03T04:37:29.579Z,3.10
2019-01-03T04:42:02.271Z,5.10
2019-01-03T04:46:42.387Z,3.80
2019-01-03T04:51:34.787Z,1.90
2019-01-03T04:56:27.259Z,3.50
2019-01-03T05:01:02.403Z,2.90
2019-01-03T05:05:42.209Z,5.40
2019-01-03T05:10:25.471Z,3.20
2019-01-03T05:15:12.043Z,3.93
2019-01-03T05:19:51.853Z,5.30
2019-01-03T05:24:25.957Z,5.27
2019-01-03T05:29:02.530Z,1.83
2019-01-03T05:33:55.066Z,2.77
2019-01-03T05:38:32.256Z,3.67
2019-01-03T05:43:09.209Z,5.10
2019-01-03T05:48:04.823Z,3.10
2019-01-03T05:52:50.935Z,3.27
2019-01-03T05:57:32.800Z,1.97
2019-01-03T06:02:08.602Z,4.00
2019-01-03T06:06:55.799Z,3.40
2019-01-03T06:11:32.416Z,2.37
2019-01-03T06:16:19.599Z,3.73
2019-01-03T06:21:08.648Z,3.10
2019-01-03T06:25:51.255Z,3.47
2019-01-03T06:30:26.994Z,2.60
2019-01-03T06:35:03.065Z,4.20
2019-01-03T06:39:44.432Z,3.20
2019-01-03T06:44:34.289Z,3.90
2019-01-03T06:49:10.561Z,3.00
2019-01-03T06:53:46.632Z,6.07
2019-01-03T06:58:29.530Z,3.40
2019-01-03T07:03:05.144Z,3.20
2019-01-03T07:07:57.496Z,3.90
2019-01-03T07:12:46.645Z,4.43
2019-01-03T07:17:19.976Z,3.37
2019-01-03T07:21:55.844Z,5.07
2019-01-03T07:26:32.032Z,4.93
2019-01-03T07:31:08.303Z,4.27
2019-01-03T07:35:45.351Z,5.60
2019-01-03T07:40:17.907Z,2.37
2019-01-03T07:45:01.144Z,5.40
2019-01-03T07:49:40.829Z,4.03
2019-01-03T07:54:36.515Z,4.83
2019-01-03T07:59:22.274Z,3.87
2019-01-03T08:04:02.151Z,3.10
2019-01-03T08:08:38.041Z,5.20
2019-01-03T08:13:24.462Z,5.20
2019-01-03T08:18:10.200Z,2.30
2019-01-03T08:22:56.559Z,7.87
2019-01-03T08:27:32.141Z,2.87
2019-01-03T08:32:15.184Z,6.43
2019-01-03T08:36:52.393Z,3.70
2019-01-03T08:41:32.154Z,5.80
2019-01-03T08:46:12.311Z,4.67
2019-01-03T08:51:08.137Z,2.90
2019-01-03T08:55:43.833Z,4.60
2019-01-03T09:00:19.016Z,3.57
2019-01-03T09:05:04.842Z,2.67
2019-01-03T09:09:51.830Z,4.07
2019-01-03T09:14:41.267Z,3.20
2019-01-03T09:19:18.349Z,6.00
2019-01-03T09:24:10.426Z,4.13
2019-01-03T09:29:06.011Z,9.27
2019-01-03T09:33:42.321Z,9.20
2019-01-03T09:38:20.500Z,6.70
2019-01-03T09:43:04.057Z,5.40
2019-01-03T09:47:22.873Z,5.00
2019-01-03T09:51:41.223Z,4.13
2019-01-03T09:55:59.889Z,7.50
2019-01-03T10:00:18.151Z,6.77
2019-01-03T10:04:36.234Z,5.30
2019-01-03T10:08:54.881Z,3.33
2019-01-03T10:13:13.156Z,5.30
2019-01-03T10:17:31.279Z,4.00
2019-01-03T10:21:50.743Z,3.70
2019-01-03T10:26:09.510Z,4.80
2019-01-03T10:30:28.375Z,3.33
2019-01-03T10:34:46.806Z,2.80
2019-01-03T10:39:08.067Z,5.97
2019-01-03T10:43:26.305Z,2.53
2019-01-03T10:47:44.848Z,4.33
2019-01-03T10:52:03.054Z,5.70
2019-01-03T10:56:21.390Z,4.90
2019-01-03T11:00:39.579Z,2.50
2019-01-03T11:04:58.548Z,4.77
2019-01-03T11:09:17.196Z,1.40
2019-01-03T11:13:35.444Z,2.00
2019-01-03T11:17:54.024Z,4.53
2019-01-03T11:22:12.326Z,3.73
2019-01-03T11:26:31.127Z,4.60
2019-01-03T11:30:49.261Z,1.90
2019-01-03T11:35:07.939Z,1.60
2019-01-03T11:39:26.165Z,1.57
2019-01-03T11:43:44.322Z,1.60
2019-01-03T11:48:02.553Z,2.50
2019-01-03T11:52:20.803Z,1.70
2019-01-03T11:56:38.882Z,1.53
2019-01-03T12:00:57.216Z,2.00
2019-01-03T12:05:15.426Z,1.30
2019-01-03T12:09:33.643Z,1.30
2019-01-03T12:13:52.420Z,1.93
2019-01-03T12:18:11.070Z,2.70
2019-01-03T12:22:29.706Z,2.50
2019-01-03T12:26:48.153Z,5.17
2019-01-03T12:31:06.230Z,3.47
2019-01-03T12:35:24.418Z,5.03
2019-01-03T12:39:42.610Z,3.77
2019-01-03T12:44:02.172Z,2.70
2019-01-03T12:48:20.638Z,5.97
2019-01-03T12:52:39.098Z,3.30
2019-01-03T12:56:57.874Z,2.33
2019-01-03T13:01:16.297Z,4.63
2019-01-03T13:05:34.534Z,3.00
2019-01-03T13:09:52.721Z,6.10
2019-01-03T13:14:11.029Z,2.50
2019-01-03T13:18:29.614Z,5.87
2019-01-03T13:22:48.298Z,5.73
2019-01-03T13:27:06.533Z,8.90
2019-01-03T13:31:24.698Z,4.37
2019-01-03T13:35:42.830Z,3.63
2019-01-03T13:40:01.351Z,5.60
2019-01-03T13:44:19.530Z,10.83
2019-01-03T13:48:37.965Z,6.00
2019-01-03T13:52:56.543Z,6.20
2019-01-03T13:57:14.602Z,5.73
2019-01-03T14:01:32.713Z,10.23
2019-01-03T14:05:50.914Z,8.17
2019-01-03T14:10:09.387Z,7.37
2019-01-03T14:14:27.511Z,7.50
2019-01-03T14:18:45.676Z,3.70
2019-01-03T14:23:04.263Z,6.70
2019-01-03T14:27:22.540Z,8.87
2019-01-03T14:31:40.685Z,9.63
2019-01-03T14:35:59.175Z,4.77
2019-01-03T14:40:17.429Z,5.30
2019-01-03T14:44:35.608Z,8.87
2019-01-03T14:48:53.792Z,7.63
2019-01-03T14:53:12.401Z,5.90
2019-01-03T14:57:30.992Z,6.47
2019-01-03T15:01:49.407Z,6.07
2019-01-03T15:06:08.585Z,5.80
2019-01-03T15:10:26.712Z,6.30
2019-01-03T15:14:44.876Z,6.70
2019-01-03T15:19:03.030Z,7.80
2019-01-03T15:23:21.931Z,10.60
2019-01-03T15:27:40.220Z,12.90
2019-01-03T15:31:58.380Z,7.33
2019-01-03T15:36:16.888Z,9.90
2019-01-03T15:40:35.087Z,11.03
2019-01-03T15:44:53.646Z,6.80
2019-01-03T15:49:11.986Z,6.17
2019-01-03T15:53:31.049Z,10.20
2019-01-03T15:57:49.130Z,8.83
2019-01-03T16:02:07.575Z,7.80
2019-01-03T16:06:25.852Z,10.97
2019-01-03T16:10:44.834Z,12.37
2019-01-03T16:15:03.051Z,9.83
2019-01-03T16:19:21.496Z,4.60
2019-01-03T16:23:41.000Z,5.10
2019-01-03T16:27:59.185Z,6.03
2019-01-03T16:32:18.200Z,11.20
2019-01-03T16:36:36.317Z,9.17
2019-01-03T16:40:54.564Z,9.17
2019-01-03T16:45:13.959Z,12.67
2019-01-03T16:49:32.146Z,13.47
2019-01-03T16:53:50.475Z,9.30
2019-01-03T16:58:08.626Z,9.77
2019-01-03T17:02:27.114Z,11.93
2019-01-03T17:06:45.386Z,11.17
2019-01-03T17:11:03.532Z,13.27
2019-01-03T17:15:21.746Z,10.57
2019-01-03T17:19:39.899Z,12.53
2019-01-03T17:23:58.386Z,18.37
2019-01-03T17:28:16.551Z,8.50
2019-01-03T17:32:34.866Z,11.33
2019-01-03T17:36:53.021Z,7.87
2019-01-03T17:41:11.249Z,10.50
2019-01-03T17:45:29.400Z,10.27
2019-01-03T17:49:47.927Z,16.20
2019-01-03T17:54:07.169Z,11.63
2019-01-03T17:58:26.108Z,9.77
2019-01-03T18:02:44.738Z,12.00
2019-01-03T18:07:03.090Z,17.80
2019-01-03T18:11:21.558Z,10.53
2019-01-03T18:15:40.747Z,12.33
2019-01-03T18:19:58.961Z,11.60
2019-01-03T18:24:17.114Z,7.40
2019-01-03T18:28:35.391Z,15.77
2019-01-03T18:32:54.004Z,13.37
2019-01-03T18:37:12.233Z,11.23
2019-01-03T18:41:31.458Z,11.80
2019-01-03T18:45:49.652Z,11.80
2019-01-03T18:50:08.418Z,13.00
2019-01-03T18:54:26.642Z,11.10
2019-01-03T18:58:44.861Z,11.30
2019-01-03T19:03:03.342Z,9.50
2019-01-03T19:07:21.472Z,11.53
2019-01-03T19:11:39.964Z,13.40
2019-01-03T19:15:58.134Z,13.37
2019-01-03T19:20:16.320Z,12.17
2019-01-03T19:24:34.389Z,11.63
2019-01-03T19:28:52.507Z,11.67
2019-01-03T19:33:10.696Z,13.70
2019-01-03T19:37:29.137Z,11.40
2019-01-03T19:41:47.630Z,13.33
2019-01-03T19:46:06.144Z,9.17
2019-01-03T19:50:25.037Z,10.73
2019-01-03T19:54:43.462Z,9.47
2019-01-03T19:59:01.570Z,8.87
2019-01-03T20:03:19.640Z,9.60
2019-01-03T20:07:37.875Z,8.23
2019-01-03T20:11:56.724Z,6.73
2019-01-03T20:16:14.736Z,8.87
2019-01-03T20:20:33.298Z,7.80
2019-01-03T20:24:51.537Z,9.93
2019-01-03T20:29:09.753Z,9.33
2019-01-03T20:33:28.171Z,8.47
2019-01-03T20:37:46.739Z,11.53
2019-01-03T20:42:04.962Z,9.63
2019-01-03T20:46:23.443Z,10.20
2019-01-03T20:50:42.217Z,11.00
2019-01-03T20:55:00.728Z,13.23
2019-01-03T20:59:18.837Z,12.10
2019-01-03T21:03:37.273Z,11.83
2019-01-03T21:07:55.851Z,13.13
2019-01-03T21:12:15.368Z,11.67
2019-01-03T21:16:33.968Z,12.50
2019-01-03T21:20:52.263Z,12.10
2019-01-03T21:25:11.602Z,13.57
2019-01-03T21:29:30.112Z,11.60
2019-01-03T21:33:48.353Z,15.83
2019-01-03T21:38:06.911Z,11.43
2019-01-03T21:42:25.715Z,11.87
2019-01-03T21:46:43.941Z,12.13
2019-01-03T21:51:02.205Z,10.40
2019-01-03T21:55:20.474Z,9.47
2019-01-03T21:59:39.962Z,15.93
2019-01-03T22:03:58.096Z,13.83
2019-01-03T22:08:16.417Z,10.80
2019-01-03T22:12:34.619Z,14.80
2019-01-03T22:16:53.044Z,13.90
2019-01-03T22:21:11.163Z,16.70
2019-01-03T22:25:29.519Z,16.13
2019-01-03T22:29:47.987Z,14.30
2019-01-03T22:34:06.222Z,15.20
2019-01-03T22:38:24.352Z,13.90
2019-01-03T22:42:42.819Z,11.50
2019-01-03T22:47:01.039Z,16.13
2019-01-03T22:51:20.299Z,12.67
2019-01-03T22:55:38.685Z,12.53
2019-01-03T22:59:57.145Z,14.50
2019-01-03T23:04:15.408Z,11.13
2019-01-03T23:08:33.966Z,17.53
2019-01-03T23:12:53.088Z,14.00
2019-01-03T23:17:11.201Z,14.70
2019-01-03T23:21:29.750Z,15.23
2019-01-03T23:25:47.984Z,15.20
2019-01-03T23:30:07.690Z,15.60
2019-01-03T23:34:28.204Z,10.20
2019-01-03T23:38:46.274Z,15.17
2019-01-03T23:43:04.402Z,10.33
2019-01-03T23:47:22.982Z,13.93
2019-01-03T23:51:41.236Z,15.53
2019-01-03T23:56:00.928Z,12.90
